Eagle San Antonio — 9V9330 — position and weather

sailwx.info

Track history (hours):
 
Tides and Currents Weather Stations Pressure Air Temp Water Temp Dewpoint Dewpoint Depression Visibility Wind Speed Wind Dir Waves Ship Positions

Eagle San Antonio

Last reported at 2014-Dec-04 17:33 UTC. Time now 2014-Dec-22 20:40 UTC.
Position S 30°23' E 031°00'.
Warning: this ship's position is 18 days out of date.

Length 274 m; draft 9.3 m.

Type: Tanker. MMSI: 566453000.

Date/timePositionNaut miles runAvg speedWind from/ knotsBaromVisibWave heightAir tempDewpointWater temp
2014-Dec-04 17:33S 30°23' E 031°00'1313.1
2014-Dec-04 16:33S 30°11' E 031°02'1312.9
2014-Dec-04 15:33S 29°58' E 031°05'2 2.0
2014-Dec-04 14:32S 29°56' E 031°06'1 0.8
2014-Dec-04 13:34S 29°56' E 031°07'3 2.8
2014-Dec-04 12:29S 29°58' E 031°04'6 6.2
2014-Dec-04 11:33S 30°01' E 030°58'0 0.0
2014-Dec-03 07:33S 30°01' E 030°58'1 0.8
2014-Dec-03 06:33S 30°01' E 030°58'4 4.2
2014-Dec-03 05:33S 30°01' E 031°03'5 5.3
2014-Dec-03 04:33S 29°57' E 031°07'3 2.7
2014-Dec-03 03:33S 29°58' E 031°10'0 0.2
2014-Dec-03 02:33S 29°58' E 031°10'0 0.2
2014-Dec-03 01:33S 29°58' E 031°10'1 0.6
2014-Dec-03 00:33S 29°58' E 031°10'2 1.8
2014-Dec-02 23:33S 29°60' E 031°12'7 7.1
2014-Dec-02 22:33S 30°07' E 031°13'1010.3
2014-Dec-02 21:33S 30°17' E 031°09'1110.4
2014-Dec-02 20:29S 30°27' E 031°04'2512.0
2014-Dec-02 18:25S 30°50' E 030°54'1212.4
2014-Dec-02 17:29S 31°01' E 030°49'1512.3
2014-Dec-02 16:15S 31°15' E 030°43'  
Track history (hours):
 
Tides and Currents Weather Stations Pressure Air Temp Water Temp Dewpoint Dewpoint Depression Visibility Wind Speed Wind Dir Waves Ship Positions

Eagle San Antonio

Last reported at 2014-Dec-04 17:33 UTC. Time now 2014-Dec-22 20:40 UTC.
Position S 30°23' E 031°00'.
Warning: this ship's position is 18 days out of date.

Length 274 m; draft 9.3 m.

Type: Tanker. MMSI: 566453000.

Date/timePositionNaut miles runAvg speedWind from/ knotsBaromVisibWave heightAir tempDewpointWater temp
2014-Dec-04 17:33S 30°23' E 031°00'1313.1
2014-Dec-04 16:33S 30°11' E 031°02'1312.9
2014-Dec-04 15:33S 29°58' E 031°05'2 2.0
2014-Dec-04 14:32S 29°56' E 031°06'1 0.8
2014-Dec-04 13:34S 29°56' E 031°07'3 2.8
2014-Dec-04 12:29S 29°58' E 031°04'6 6.2
2014-Dec-04 11:33S 30°01' E 030°58'0 0.0
2014-Dec-03 07:33S 30°01' E 030°58'1 0.8
2014-Dec-03 06:33S 30°01' E 030°58'4 4.2
2014-Dec-03 05:33S 30°01' E 031°03'5 5.3
2014-Dec-03 04:33S 29°57' E 031°07'3 2.7
2014-Dec-03 03:33S 29°58' E 031°10'0 0.2
2014-Dec-03 02:33S 29°58' E 031°10'0 0.2
2014-Dec-03 01:33S 29°58' E 031°10'1 0.6
2014-Dec-03 00:33S 29°58' E 031°10'2 1.8
2014-Dec-02 23:33S 29°60' E 031°12'7 7.1
2014-Dec-02 22:33S 30°07' E 031°13'1010.3
2014-Dec-02 21:33S 30°17' E 031°09'1110.4
2014-Dec-02 20:29S 30°27' E 031°04'2512.0
2014-Dec-02 18:25S 30°50' E 030°54'1212.4
2014-Dec-02 17:29S 31°01' E 030°49'1512.3
2014-Dec-02 16:15S 31°15' E 030°43'  

Dump ship's entire track history